Main page
METAR-TAF:

METAR-TAF

Airports :

Abadan, Iran

Abadan Airport

latitude: 30-22N, longitude: 048-15E, elevation: 3 m

Current weather observation

The report was made 48 minutes ago, at 09:00 UTC
Wind 10 kt from the North
Temperature 34°C
Humidity 12%
Pressure 1010 hPa
Visibility 10 km or more
no clouds below 1500 m and no cumulonimbus

METAR: OIAA 220900Z 35010KT CAVOK 34/01 Q1010

Time: 13:18 (09:48 UTC)

Forecast

The report was made 4 hours and 18 minutes ago, at 05:30 UTC
Forecast valid from 22 at 06 UTC to 23 at 12 UTC
Wind 4 kt from the West/Southwest
Visibility: 8000 m
Temporary
from 22 at 10 UTC to 22 at 14 UTC
Wind 12 kt from the West

TAF: OIAA 220530Z 2206/2312 25002MPS 8000 NSC TEMPO 2210/2214 27006MPS

Weather observations and forecasts of more than 4000 airports (METAR and TAF reports).

The available stations are represented by yellow and red dots on the map.

Hover mouse over dot to see the name of the station.

Then click to see weather observations and forecasts.

To change the map : click on the green buttons with a black cross to zoom in, on the green button with a dash to zoom out, or on the green arrows for adjacent maps.


METAR-TAF: